createdAt,value
2023-03-29T00:01:35.178Z,-0.85
2023-03-29T00:05:18.309Z,-1.26
2023-03-29T00:09:07.574Z,-1.60
2023-03-29T00:12:56.659Z,-1.90
2023-03-29T00:16:46.072Z,-2.17
2023-03-29T00:20:35.251Z,-2.41
2023-03-29T00:24:16.919Z,-2.60
2023-03-29T00:28:06.058Z,-1.94
2023-03-29T00:31:55.190Z,0.06
2023-03-29T00:35:44.459Z,1.56
2023-03-29T00:39:32.497Z,2.62
2023-03-29T00:43:21.722Z,3.56
2023-03-29T00:47:10.810Z,3.59
2023-03-29T00:51:00.026Z,2.30
2023-03-29T00:54:49.222Z,1.30
2023-03-29T00:58:38.376Z,0.53
2023-03-29T01:02:26.132Z,-0.15
2023-03-29T01:06:05.884Z,-0.72
2023-03-29T01:09:59.152Z,-1.18
2023-03-29T01:13:49.163Z,-1.59
2023-03-29T01:17:38.447Z,-1.89
2023-03-29T01:21:33.834Z,-2.13
2023-03-29T01:37:20.071Z,0.39
2023-03-29T01:41:08.865Z,1.91
2023-03-29T01:44:53.429Z,3.07
2023-03-29T01:48:48.846Z,4.03
2023-03-29T01:52:48.869Z,4.06
2023-03-29T02:15:52.250Z,-0.42
2023-03-29T02:19:41.393Z,-0.82
2023-03-29T02:23:36.151Z,-1.13
2023-03-29T02:27:15.184Z,-1.39
2023-03-29T02:31:04.758Z,-1.57
2023-03-29T02:34:29.333Z,-0.88
2023-03-29T02:37:55.830Z,1.14
2023-03-29T02:41:43.742Z,2.58
2023-03-29T02:45:26.030Z,3.73
2023-03-29T02:49:15.130Z,4.58
2023-03-29T02:53:03.193Z,4.57
2023-03-29T02:56:42.327Z,3.31
2023-03-29T03:00:24.732Z,2.38
2023-03-29T03:04:05.439Z,1.62
2023-03-29T03:07:44.956Z,1.00
2023-03-29T03:11:20.482Z,0.47
2023-03-29T03:15:02.245Z,-0.03
2023-03-29T03:18:43.682Z,-0.43
2023-03-29T03:22:27.302Z,-0.79
2023-03-29T03:26:01.924Z,-1.07
2023-03-29T03:29:41.057Z,-0.58
2023-03-29T03:33:21.548Z,1.42
2023-03-29T03:37:16.386Z,3.07
2023-03-29T03:41:05.903Z,4.25
2023-03-29T03:44:41.737Z,4.43
2023-03-29T03:48:31.222Z,3.11
2023-03-29T03:52:26.297Z,2.12
2023-03-29T03:56:15.380Z,1.35
2023-03-29T04:00:19.105Z,0.69
2023-03-29T04:04:08.557Z,0.22
2023-03-29T04:07:50.615Z,-0.19
2023-03-29T04:11:54.441Z,-0.54
2023-03-29T04:15:36.122Z,-0.84
2023-03-29T04:19:14.132Z,-1.07
2023-03-29T04:22:53.401Z,-0.42
2023-03-29T04:26:24.694Z,1.65
2023-03-29T04:30:13.815Z,3.12
2023-03-29T04:33:45.580Z,4.34
2023-03-29T04:37:25.112Z,4.48
2023-03-29T04:40:58.222Z,3.16
2023-03-29T04:44:50.487Z,2.20
2023-03-29T04:48:37.160Z,1.50
2023-03-29T04:52:25.348Z,0.92
2023-03-29T04:55:55.604Z,0.43
2023-03-29T04:59:00.229Z,0.05
2023-03-29T05:01:48.028Z,-0.21
2023-03-29T05:04:36.887Z,-0.43
2023-03-29T05:07:38.721Z,-0.59
2023-03-29T05:10:53.336Z,-0.28
2023-03-29T05:14:02.359Z,1.51
2023-03-29T05:17:01.341Z,3.06
2023-03-29T05:20:12.886Z,4.02
2023-03-29T05:23:18.647Z,4.92
2023-03-29T05:26:31.688Z,5.23
2023-03-29T05:29:23.291Z,4.28
2023-03-29T05:32:31.463Z,3.53
2023-03-29T05:35:44.198Z,2.84
2023-03-29T05:39:02.132Z,2.34
2023-03-29T05:42:01.766Z,1.87
2023-03-29T05:45:21.038Z,1.45
2023-03-29T05:48:21.005Z,1.12
2023-03-29T05:51:24.821Z,0.87
2023-03-29T05:54:08.921Z,0.68
2023-03-29T05:57:13.122Z,0.58
2023-03-29T06:00:36.958Z,0.51
2023-03-29T06:03:49.719Z,1.22
2023-03-29T06:06:40.740Z,3.20
2023-03-29T06:09:32.243Z,4.52
2023-03-29T06:12:20.493Z,5.51
2023-03-29T06:15:34.228Z,5.93
2023-03-29T06:18:21.184Z,5.19
2023-03-29T06:21:05.437Z,4.58
2023-03-29T06:23:48.217Z,4.14
2023-03-29T06:26:39.827Z,3.77
2023-03-29T06:29:36.342Z,3.47
2023-03-29T06:32:33.621Z,3.18
2023-03-29T06:35:21.965Z,2.98
2023-03-29T06:38:26.852Z,2.80
2023-03-29T06:41:20.652Z,2.70
2023-03-29T06:44:50.989Z,2.58
2023-03-29T06:47:33.380Z,2.49
2023-03-29T06:50:32.407Z,2.44
2023-03-29T06:53:23.741Z,2.41
2023-03-29T06:56:13.290Z,2.42
2023-03-29T06:59:01.997Z,2.44
2023-03-29T07:02:07.565Z,2.47
2023-03-29T07:05:00.630Z,2.56
2023-03-29T07:08:00.187Z,2.62
2023-03-29T07:10:53.453Z,2.69
2023-03-29T07:13:46.338Z,2.72
2023-03-29T07:16:24.651Z,2.74
2023-03-29T07:19:03.877Z,2.76
2023-03-29T07:21:54.851Z,2.81
2023-03-29T07:24:36.689Z,2.88
2023-03-29T07:27:08.912Z,2.93
2023-03-29T07:29:50.453Z,2.98
2023-03-29T07:32:33.311Z,3.03
2023-03-29T07:35:43.481Z,3.13
2023-03-29T07:38:18.747Z,3.22
2023-03-29T07:40:55.701Z,3.31
2023-03-29T07:43:54.587Z,3.43
2023-03-29T07:46:42.886Z,3.58
2023-03-29T07:49:39.973Z,3.76
2023-03-29T07:52:32.938Z,3.95
2023-03-29T07:55:24.305Z,4.11
2023-03-29T07:58:30.297Z,4.26
2023-03-29T08:01:19.771Z,4.42
2023-03-29T08:04:22.932Z,4.59
2023-03-29T08:07:24.580Z,4.73
2023-03-29T08:10:34.655Z,4.90
2023-03-29T08:13:26.655Z,5.05
2023-03-29T08:16:28.560Z,5.16
2023-03-29T08:19:14.772Z,5.32
2023-03-29T08:22:28.737Z,5.51
2023-03-29T08:25:31.284Z,5.68
2023-03-29T08:28:10.094Z,5.79
2023-03-29T08:31:15.967Z,5.95
2023-03-29T08:33:52.231Z,6.05
2023-03-29T08:36:53.927Z,6.18
2023-03-29T08:39:30.537Z,6.33
2023-03-29T08:42:49.568Z,6.51
2023-03-29T08:45:35.549Z,6.80
2023-03-29T08:48:10.215Z,7.04
2023-03-29T08:50:54.578Z,7.27
2023-03-29T08:53:26.672Z,7.52
2023-03-29T08:56:15.769Z,7.73
2023-03-29T08:59:27.655Z,7.97
2023-03-29T09:01:58.165Z,8.16
2023-03-29T09:04:31.805Z,8.33
2023-03-29T09:07:28.202Z,8.51
2023-03-29T09:09:57.540Z,8.62
2023-03-29T09:12:45.169Z,8.74
2023-03-29T09:15:23.807Z,8.88
2023-03-29T09:18:12.151Z,9.04
2023-03-29T09:21:09.823Z,9.25
2023-03-29T09:23:41.220Z,9.51
2023-03-29T09:26:22.542Z,9.75
2023-03-29T09:29:20.985Z,9.98
2023-03-29T09:31:49.925Z,10.16
2023-03-29T09:34:22.143Z,10.28
2023-03-29T09:37:30.305Z,10.44
2023-03-29T09:40:00.008Z,10.56
2023-03-29T09:42:41.853Z,10.66
2023-03-29T09:45:10.779Z,10.80
2023-03-29T09:47:53.323Z,10.97
2023-03-29T09:50:42.601Z,11.11
2023-03-29T09:53:11.673Z,11.20
2023-03-29T09:55:46.311Z,11.27
2023-03-29T09:58:36.381Z,11.38
2023-03-29T10:01:10.531Z,11.46
2023-03-29T10:03:40.198Z,11.45
2023-03-29T10:06:14.709Z,11.45
2023-03-29T10:08:48.065Z,11.53
2023-03-29T10:11:34.292Z,11.65
2023-03-29T10:14:21.536Z,11.72
2023-03-29T10:16:56.146Z,11.80
2023-03-29T10:19:34.635Z,11.87
2023-03-29T10:22:06.258Z,11.92
2023-03-29T10:24:34.431Z,11.93
2023-03-29T10:27:04.683Z,11.92
2023-03-29T10:29:37.392Z,11.90
2023-03-29T10:32:38.628Z,11.83
2023-03-29T10:35:24.088Z,11.75
2023-03-29T10:37:53.753Z,11.83
2023-03-29T10:40:27.286Z,11.86
2023-03-29T10:42:59.464Z,11.94
2023-03-29T10:45:31.270Z,12.14
2023-03-29T10:47:59.656Z,12.33
2023-03-29T10:50:34.479Z,12.49
2023-03-29T10:53:03.307Z,12.69
2023-03-29T10:55:47.335Z,12.84
2023-03-29T10:58:15.640Z,12.91
2023-03-29T11:00:55.567Z,13.01
2023-03-29T11:03:35.484Z,13.21
2023-03-29T11:06:12.824Z,13.36
2023-03-29T11:09:12.965Z,13.49
2023-03-29T11:11:51.534Z,13.85
2023-03-29T11:14:47.165Z,14.08
2023-03-29T11:17:27.781Z,14.27
2023-03-29T11:20:17.708Z,14.52
2023-03-29T11:22:54.706Z,14.91
2023-03-29T11:25:51.057Z,15.10
2023-03-29T11:28:36.665Z,15.22
2023-03-29T11:31:32.840Z,15.21
2023-03-29T11:34:13.069Z,15.59
2023-03-29T11:36:44.675Z,15.89
2023-03-29T11:39:15.723Z,16.05
2023-03-29T11:41:47.110Z,15.98
2023-03-29T11:44:20.980Z,15.99
2023-03-29T11:47:17.882Z,15.88
2023-03-29T11:49:51.868Z,15.61
2023-03-29T11:52:23.444Z,15.59
2023-03-29T11:55:10.719Z,15.63
2023-03-29T11:57:44.919Z,15.75
2023-03-29T12:00:19.853Z,15.75
2023-03-29T12:02:56.013Z,15.69
2023-03-29T12:05:31.661Z,15.66
2023-03-29T12:08:16.597Z,15.33
2023-03-29T12:11:07.245Z,14.79
2023-03-29T12:13:40.609Z,14.57
2023-03-29T12:16:35.434Z,14.76
2023-03-29T12:19:14.886Z,14.97
2023-03-29T12:21:45.092Z,15.26
2023-03-29T12:24:16.205Z,15.49
2023-03-29T12:26:53.844Z,15.91
2023-03-29T12:29:52.611Z,16.23
2023-03-29T12:32:42.434Z,16.34
2023-03-29T12:35:42.507Z,16.37
2023-03-29T12:38:31.679Z,16.45
2023-03-29T12:41:21.857Z,16.61
2023-03-29T12:44:25.366Z,16.97
2023-03-29T12:46:58.568Z,17.04
2023-03-29T12:49:29.890Z,16.91
2023-03-29T12:51:59.572Z,16.74
2023-03-29T12:54:31.217Z,16.64
2023-03-29T12:57:02.267Z,16.49
2023-03-29T12:59:44.277Z,16.41
2023-03-29T13:02:15.384Z,16.29
2023-03-29T13:04:44.176Z,16.07
2023-03-29T13:07:29.293Z,15.74
2023-03-29T13:09:58.387Z,15.35
2023-03-29T13:12:51.077Z,15.00
2023-03-29T13:15:19.289Z,14.52
2023-03-29T13:18:17.033Z,14.07
2023-03-29T13:20:54.772Z,13.69
2023-03-29T13:23:37.931Z,13.43
2023-03-29T13:26:31.654Z,13.19
2023-03-29T13:29:21.067Z,13.01
2023-03-29T13:32:08.048Z,12.87
2023-03-29T13:34:57.940Z,12.72
2023-03-29T13:38:03.053Z,12.67
2023-03-29T13:40:34.520Z,12.74
2023-03-29T13:43:19.308Z,12.81
2023-03-29T13:46:19.248Z,12.84
2023-03-29T13:49:14.496Z,12.75
2023-03-29T13:51:59.851Z,12.67
2023-03-29T13:54:35.776Z,12.66
2023-03-29T13:57:22.154Z,12.72
2023-03-29T14:00:07.286Z,12.86
2023-03-29T14:02:54.074Z,13.05
2023-03-29T14:05:37.615Z,13.18
2023-03-29T14:08:33.939Z,13.30
2023-03-29T14:11:05.995Z,13.47
2023-03-29T14:13:34.683Z,13.52
2023-03-29T14:16:09.169Z,13.49
2023-03-29T14:18:40.604Z,13.65
2023-03-29T14:21:12.158Z,14.12
2023-03-29T14:23:44.254Z,14.45
2023-03-29T14:26:21.483Z,14.47
2023-03-29T14:28:52.019Z,14.27
2023-03-29T14:31:23.319Z,14.07
2023-03-29T14:33:59.480Z,13.88
2023-03-29T14:36:28.729Z,13.78
2023-03-29T14:38:59.708Z,13.86
2023-03-29T14:41:31.764Z,14.27
2023-03-29T14:44:00.623Z,14.62
2023-03-29T14:46:29.080Z,14.56
2023-03-29T14:48:57.607Z,14.54
2023-03-29T14:51:31.287Z,14.57
2023-03-29T14:54:01.060Z,14.68
2023-03-29T14:56:29.572Z,14.83
2023-03-29T14:58:57.685Z,14.71
2023-03-29T15:01:26.939Z,14.22
2023-03-29T15:04:11.698Z,13.80
2023-03-29T15:06:42.476Z,13.45
2023-03-29T15:09:20.267Z,13.42
2023-03-29T15:11:55.847Z,13.45
2023-03-29T15:14:27.002Z,13.58
2023-03-29T15:17:02.255Z,13.55
2023-03-29T15:19:31.102Z,13.38
2023-03-29T15:22:05.483Z,13.13
2023-03-29T15:24:34.039Z,12.75
2023-03-29T15:27:05.840Z,12.39
2023-03-29T15:29:42.072Z,12.02
2023-03-29T15:32:19.408Z,11.68
2023-03-29T15:34:58.333Z,11.40
2023-03-29T15:37:27.072Z,11.18
2023-03-29T15:39:56.422Z,11.07
2023-03-29T15:42:25.766Z,11.01
2023-03-29T15:44:56.412Z,10.93
2023-03-29T15:47:25.224Z,10.82
2023-03-29T15:49:53.485Z,10.71
2023-03-29T15:52:22.356Z,10.62
2023-03-29T15:54:50.756Z,10.53
2023-03-29T15:57:19.129Z,10.47
2023-03-29T15:59:47.485Z,10.43
2023-03-29T16:02:16.700Z,10.38
2023-03-29T16:04:45.068Z,10.33
2023-03-29T16:07:15.802Z,10.30
2023-03-29T16:09:45.983Z,10.26
2023-03-29T16:12:16.375Z,10.21
2023-03-29T16:14:44.464Z,10.16
2023-03-29T16:17:12.765Z,10.15
2023-03-29T16:19:40.997Z,10.13
2023-03-29T16:22:09.300Z,10.10
2023-03-29T16:24:37.566Z,10.06
2023-03-29T16:27:05.878Z,10.01
2023-03-29T16:29:34.260Z,9.97
2023-03-29T16:32:05.345Z,9.92
2023-03-29T16:34:36.156Z,9.84
2023-03-29T16:37:04.512Z,9.76
2023-03-29T16:39:32.851Z,9.66
2023-03-29T16:42:01.159Z,9.60
2023-03-29T16:44:29.480Z,9.53
2023-03-29T16:46:58.531Z,9.48
2023-03-29T16:49:26.975Z,9.41
2023-03-29T16:51:55.348Z,9.35
2023-03-29T16:54:25.843Z,9.30
2023-03-29T16:56:54.498Z,9.24
2023-03-29T16:59:23.003Z,9.19
2023-03-29T17:01:51.573Z,9.13
2023-03-29T17:04:19.936Z,9.06
2023-03-29T17:06:48.801Z,9.00
2023-03-29T17:09:17.758Z,8.94
2023-03-29T17:11:46.436Z,8.89
2023-03-29T17:14:17.413Z,8.85
2023-03-29T17:16:46.516Z,8.80
2023-03-29T17:19:15.159Z,8.75
2023-03-29T17:21:48.785Z,8.72
2023-03-29T17:24:17.330Z,8.68
2023-03-29T17:26:46.146Z,8.63
2023-03-29T17:29:14.792Z,8.61
2023-03-29T17:31:47.940Z,8.59
2023-03-29T17:34:20.052Z,8.56
2023-03-29T17:36:48.978Z,8.52
2023-03-29T17:39:18.844Z,8.48
2023-03-29T17:41:47.985Z,8.45
2023-03-29T17:44:19.812Z,8.41
2023-03-29T17:46:48.607Z,8.37
2023-03-29T17:49:19.371Z,8.34
2023-03-29T17:51:47.914Z,8.31
2023-03-29T17:54:19.408Z,8.29
2023-03-29T17:56:50.630Z,8.26
2023-03-29T17:59:19.316Z,8.25
2023-03-29T18:01:47.815Z,8.23
2023-03-29T18:04:28.432Z,8.21
2023-03-29T18:06:59.308Z,8.19
2023-03-29T18:09:36.328Z,8.16
2023-03-29T18:12:08.373Z,8.15
2023-03-29T18:14:39.563Z,8.13
2023-03-29T18:17:13.456Z,8.11
2023-03-29T18:19:42.064Z,8.09
2023-03-29T18:22:13.211Z,8.08
2023-03-29T18:24:41.740Z,8.07
2023-03-29T18:27:10.328Z,8.07
2023-03-29T18:29:39.176Z,8.08
2023-03-29T18:32:08.006Z,8.09
2023-03-29T18:34:39.687Z,8.10
2023-03-29T18:37:14.533Z,8.11
2023-03-29T18:39:45.728Z,8.09
2023-03-29T18:42:16.521Z,8.07
2023-03-29T18:44:53.385Z,8.06
2023-03-29T18:47:22.349Z,8.04
2023-03-29T18:49:54.148Z,8.03
2023-03-29T18:52:33.925Z,8.01
2023-03-29T18:55:05.062Z,7.99
2023-03-29T18:57:33.494Z,7.96
2023-03-29T19:00:01.869Z,7.93
2023-03-29T19:02:30.437Z,7.91
2023-03-29T19:04:59.411Z,7.88
2023-03-29T19:07:28.361Z,7.86
2023-03-29T19:09:56.981Z,7.84
2023-03-29T19:12:25.517Z,7.82
2023-03-29T19:14:53.932Z,7.81
2023-03-29T19:17:22.435Z,7.79
2023-03-29T19:19:56.915Z,7.74
2023-03-29T19:22:25.993Z,7.71
2023-03-29T19:24:54.202Z,7.69
2023-03-29T19:27:26.082Z,7.68
2023-03-29T19:29:54.428Z,7.66
2023-03-29T19:32:25.975Z,7.64
2023-03-29T19:34:54.585Z,7.61
2023-03-29T19:37:23.221Z,7.58
2023-03-29T19:40:01.691Z,7.57
2023-03-29T19:42:32.504Z,7.84
2023-03-29T19:45:09.530Z,9.18
2023-03-29T19:47:40.272Z,10.45
2023-03-29T19:50:09.260Z,11.28
2023-03-29T19:52:38.073Z,11.67
2023-03-29T19:55:15.650Z,11.21
2023-03-29T19:57:46.320Z,10.56
2023-03-29T20:00:15.281Z,10.04
2023-03-29T20:02:44.122Z,9.61
2023-03-29T20:05:16.108Z,9.26
2023-03-29T20:07:45.028Z,8.94
2023-03-29T20:10:18.815Z,8.69
2023-03-29T20:12:47.985Z,8.45
2023-03-29T20:15:19.251Z,8.25
2023-03-29T20:17:51.592Z,8.07
2023-03-29T20:20:24.154Z,7.91
2023-03-29T20:22:58.564Z,7.76
2023-03-29T20:25:27.322Z,7.62
2023-03-29T20:28:04.284Z,7.48
2023-03-29T20:30:32.769Z,7.38
2023-03-29T20:33:01.281Z,7.53
2023-03-29T20:35:35.743Z,8.67
2023-03-29T20:38:04.484Z,9.91
2023-03-29T20:40:35.539Z,10.80
2023-03-29T20:43:20.319Z,11.22
2023-03-29T20:45:58.298Z,10.58
2023-03-29T20:48:33.048Z,9.97
2023-03-29T20:51:10.278Z,9.47
2023-03-29T20:53:46.775Z,9.08
2023-03-29T20:56:18.700Z,8.77
2023-03-29T20:58:53.201Z,8.51
2023-03-29T21:01:29.704Z,8.27
2023-03-29T21:03:58.376Z,8.06
2023-03-29T21:06:31.780Z,7.88
2023-03-29T21:09:06.012Z,7.73
2023-03-29T21:11:36.710Z,7.61
2023-03-29T21:14:09.525Z,7.71
2023-03-29T21:16:42.619Z,8.86
2023-03-29T21:19:22.912Z,10.16
2023-03-29T21:21:57.507Z,11.04
2023-03-29T21:24:32.840Z,11.43
2023-03-29T21:27:16.443Z,10.91
2023-03-29T21:29:50.366Z,10.24
2023-03-29T21:32:32.590Z,9.74
2023-03-29T21:35:06.937Z,9.35
2023-03-29T21:37:37.889Z,9.02
2023-03-29T21:40:22.598Z,8.68
2023-03-29T21:43:05.941Z,8.39
2023-03-29T21:46:01.363Z,8.17
2023-03-29T21:48:38.821Z,7.95
2023-03-29T21:51:15.748Z,7.78
2023-03-29T21:53:47.267Z,7.84
2023-03-29T21:56:22.527Z,8.92
2023-03-29T21:59:01.187Z,10.07
2023-03-29T22:01:49.188Z,11.02
2023-03-29T22:04:37.215Z,11.49
2023-03-29T22:07:17.448Z,10.86
2023-03-29T22:09:50.769Z,10.17
2023-03-29T22:12:32.560Z,9.66
2023-03-29T22:15:15.059Z,9.23
2023-03-29T22:17:59.854Z,8.89
2023-03-29T22:20:48.925Z,8.59
2023-03-29T22:23:33.068Z,8.30
2023-03-29T22:26:15.827Z,8.08
2023-03-29T22:28:53.345Z,8.21
2023-03-29T22:31:27.755Z,9.50
2023-03-29T22:33:58.572Z,10.67
2023-03-29T22:36:33.258Z,11.57
2023-03-29T22:39:12.112Z,11.99
2023-03-29T22:41:43.500Z,11.28
2023-03-29T22:44:23.093Z,10.56
2023-03-29T22:46:51.798Z,9.95
2023-03-29T22:49:26.400Z,9.48
2023-03-29T22:51:59.754Z,9.08
2023-03-29T22:54:29.352Z,8.74
2023-03-29T22:57:01.136Z,8.45
2023-03-29T22:59:32.397Z,8.45
2023-03-29T23:02:08.878Z,9.59
2023-03-29T23:04:38.950Z,10.76
2023-03-29T23:07:15.315Z,11.67
2023-03-29T23:09:46.345Z,12.12
2023-03-29T23:12:17.920Z,11.49
2023-03-29T23:14:48.748Z,10.73
2023-03-29T23:17:19.358Z,10.13
2023-03-29T23:19:53.873Z,9.67
2023-03-29T23:22:24.920Z,9.29
2023-03-29T23:24:53.620Z,8.96
2023-03-29T23:27:22.647Z,8.67
2023-03-29T23:29:53.433Z,8.66
2023-03-29T23:32:24.460Z,9.73
2023-03-29T23:34:55.776Z,10.85
2023-03-29T23:37:25.062Z,11.72
2023-03-29T23:39:56.076Z,12.10
2023-03-29T23:42:31.916Z,11.54
2023-03-29T23:45:02.749Z,10.78
2023-03-29T23:47:35.557Z,10.17
2023-03-29T23:50:05.147Z,9.73
2023-03-29T23:52:34.104Z,9.34
2023-03-29T23:55:20.448Z,8.99
2023-03-29T23:57:49.026Z,8.99
